createdAt,value
2018-09-04T00:00:39.101Z,42.90
2018-09-04T00:03:07.431Z,34.50
2018-09-04T00:05:35.789Z,38.60
2018-09-04T00:08:04.122Z,39.10
2018-09-04T00:10:32.445Z,38.83
2018-09-04T00:13:01.184Z,41.40
2018-09-04T00:15:29.502Z,42.60
2018-09-04T00:17:57.817Z,43.30
2018-09-04T00:20:26.192Z,41.00
2018-09-04T00:22:54.540Z,38.40
2018-09-04T00:25:22.973Z,37.97
2018-09-04T00:27:51.293Z,32.97
2018-09-04T00:30:19.627Z,31.40
2018-09-04T00:32:47.945Z,32.73
2018-09-04T00:35:16.286Z,29.60
2018-09-04T00:37:44.617Z,33.30
2018-09-04T00:40:12.961Z,34.00
2018-09-04T00:42:41.342Z,38.20
2018-09-04T00:45:09.740Z,40.07
2018-09-04T00:47:38.086Z,38.87
2018-09-04T00:50:06.962Z,37.33
2018-09-04T00:52:35.300Z,36.97
2018-09-04T00:55:03.648Z,35.60
2018-09-04T00:57:31.970Z,37.33
2018-09-04T01:00:00.290Z,34.60
2018-09-04T01:02:28.620Z,31.80
2018-09-04T01:04:56.956Z,35.30
2018-09-04T01:07:25.294Z,37.33
2018-09-04T01:09:53.605Z,37.63
2018-09-04T01:12:21.929Z,38.50
2018-09-04T01:14:54.380Z,43.67
2018-09-04T01:17:22.769Z,39.17
2018-09-04T01:19:51.129Z,39.30
2018-09-04T01:22:19.449Z,39.83
2018-09-04T01:24:47.768Z,36.67
2018-09-04T01:27:16.115Z,36.10
2018-09-04T01:29:44.437Z,36.20
2018-09-04T01:32:12.833Z,36.73
2018-09-04T01:34:41.139Z,35.77
2018-09-04T01:37:09.475Z,38.33
2018-09-04T01:39:37.814Z,38.50
2018-09-04T01:42:06.200Z,40.80
2018-09-04T01:44:34.502Z,41.60
2018-09-04T01:47:02.844Z,39.47
2018-09-04T01:49:31.169Z,42.00
2018-09-04T01:51:59.509Z,41.13
2018-09-04T01:54:27.824Z,39.60
2018-09-04T01:56:56.138Z,40.17
2018-09-04T01:59:24.473Z,42.50
2018-09-04T02:01:52.827Z,41.43
2018-09-04T02:04:21.173Z,44.33
2018-09-04T02:06:49.530Z,41.67
2018-09-04T02:09:17.890Z,43.87
2018-09-04T02:11:46.213Z,39.63
2018-09-04T02:14:14.544Z,42.83
2018-09-04T02:16:42.877Z,42.60
2018-09-04T02:19:11.200Z,42.80
2018-09-04T02:21:39.606Z,42.27
2018-09-04T02:24:07.917Z,43.00
2018-09-04T02:26:36.242Z,40.90
2018-09-04T02:29:04.574Z,41.17
2018-09-04T02:31:32.913Z,41.70
2018-09-04T02:34:01.250Z,42.40
2018-09-04T02:36:29.852Z,38.37
2018-09-04T02:38:58.173Z,35.97
2018-09-04T02:41:26.505Z,36.37
2018-09-04T02:43:54.858Z,38.67
2018-09-04T02:46:23.297Z,36.63
2018-09-04T02:48:51.679Z,35.90
2018-09-04T02:51:20.029Z,42.30
2018-09-04T02:53:48.385Z,40.97
2018-09-04T02:56:16.703Z,40.53
2018-09-04T02:58:45.049Z,41.03
2018-09-04T03:01:13.624Z,42.33
2018-09-04T03:03:41.949Z,34.77
2018-09-04T03:06:10.278Z,35.63
2018-09-04T03:08:38.618Z,36.70
2018-09-04T03:11:07.660Z,33.80
2018-09-04T03:13:36.141Z,34.30
2018-09-04T03:16:04.762Z,37.80
2018-09-04T03:18:33.680Z,38.97
2018-09-04T03:21:02.001Z,40.90
2018-09-04T03:23:30.333Z,38.50
2018-09-04T03:25:58.947Z,43.47
2018-09-04T03:28:27.311Z,43.20
2018-09-04T03:30:55.724Z,42.07
2018-09-04T03:33:24.024Z,40.20
2018-09-04T03:35:52.347Z,40.57
2018-09-04T03:38:20.689Z,38.33
2018-09-04T03:40:49.009Z,39.37
2018-09-04T03:43:17.344Z,40.43
2018-09-04T03:45:45.691Z,39.97
2018-09-04T03:48:14.060Z,41.57
2018-09-04T03:50:42.432Z,39.30
2018-09-04T03:53:10.769Z,40.27
2018-09-04T03:55:39.082Z,44.07
2018-09-04T03:58:07.429Z,37.70
2018-09-04T04:00:35.809Z,38.93
2018-09-04T04:03:04.880Z,36.97
2018-09-04T04:05:33.590Z,34.70
2018-09-04T04:08:04.231Z,34.50
2018-09-04T04:10:33.066Z,35.10
2018-09-04T04:13:02.378Z,34.63
2018-09-04T04:15:31.853Z,35.00
2018-09-04T04:18:00.177Z,33.77
2018-09-04T04:20:28.522Z,33.70
2018-09-04T04:22:56.864Z,33.00
2018-09-04T04:25:25.269Z,33.40
2018-09-04T04:27:53.608Z,33.43
2018-09-04T04:30:21.953Z,32.77
2018-09-04T04:32:50.348Z,31.90
2018-09-04T04:35:18.732Z,30.67
2018-09-04T04:37:47.062Z,29.93
2018-09-04T04:40:15.427Z,30.60
2018-09-04T04:42:43.745Z,28.90
2018-09-04T04:45:12.292Z,28.27
2018-09-04T04:47:48.338Z,28.50
2018-09-04T04:50:18.020Z,29.47
2018-09-04T04:52:47.340Z,32.87
2018-09-04T04:55:15.696Z,23.23
2018-09-04T04:57:44.005Z,29.60
2018-09-04T05:00:12.405Z,29.93
2018-09-04T05:02:40.717Z,32.13
2018-09-04T05:05:09.089Z,31.60
2018-09-04T05:07:37.509Z,34.63
2018-09-04T05:10:06.316Z,33.33
2018-09-04T05:12:34.704Z,34.40
2018-09-04T05:15:03.015Z,33.53
2018-09-04T05:17:31.393Z,32.93
2018-09-04T05:19:59.782Z,30.83
2018-09-04T05:22:28.174Z,31.63
2018-09-04T05:24:57.469Z,31.77
2018-09-04T05:27:25.867Z,33.20
2018-09-04T05:29:54.314Z,31.73
2018-09-04T05:32:28.695Z,33.83
2018-09-04T05:34:57.268Z,32.50
2018-09-04T05:37:25.653Z,31.70
2018-09-04T05:39:54.238Z,31.47
2018-09-04T05:42:34.053Z,30.93
2018-09-04T05:45:04.607Z,29.50
2018-09-04T05:47:35.142Z,31.60
2018-09-04T05:50:04.256Z,33.33
2018-09-04T05:52:32.732Z,30.40
2018-09-04T05:55:01.683Z,33.27
2018-09-04T05:57:30.130Z,32.33
2018-09-04T05:59:58.476Z,32.53
2018-09-04T06:02:27.386Z,34.43
2018-09-04T06:04:55.710Z,31.83
2018-09-04T06:07:24.045Z,31.13
2018-09-04T06:09:52.370Z,33.07
2018-09-04T06:12:20.684Z,34.60
2018-09-04T06:14:49.054Z,34.23
2018-09-04T06:17:17.837Z,31.80
2018-09-04T06:19:46.157Z,35.37
2018-09-04T06:22:14.477Z,35.37
2018-09-04T06:24:42.819Z,34.30
2018-09-04T06:27:11.196Z,35.53
2018-09-04T06:29:39.576Z,35.27
2018-09-04T06:32:07.912Z,34.60
2018-09-04T06:34:36.265Z,36.47
2018-09-04T06:37:04.676Z,33.60
2018-09-04T06:39:33.029Z,33.87
2018-09-04T06:42:01.396Z,34.37
2018-09-04T06:44:29.764Z,35.10
2018-09-04T06:46:58.093Z,36.10
2018-09-04T06:49:26.419Z,35.97
2018-09-04T06:51:54.762Z,35.40
2018-09-04T06:54:23.082Z,35.50
2018-09-04T06:56:51.541Z,33.97
2018-09-04T06:59:20.438Z,34.90
2018-09-04T07:01:48.768Z,40.53
2018-09-04T07:04:17.178Z,39.23
2018-09-04T07:06:46.173Z,37.83
2018-09-04T07:09:14.953Z,40.10
2018-09-04T07:11:44.197Z,40.83
2018-09-04T07:14:12.531Z,41.07
2018-09-04T07:16:41.235Z,42.17
2018-09-04T07:19:14.021Z,46.20
2018-09-04T07:21:43.084Z,45.07
2018-09-04T07:24:11.724Z,45.17
2018-09-04T07:26:40.040Z,43.50
2018-09-04T07:29:08.349Z,47.40
2018-09-04T07:31:36.657Z,48.43
2018-09-04T07:34:05.188Z,48.90
2018-09-04T07:36:33.644Z,48.13
2018-09-04T07:39:01.948Z,50.17
2018-09-04T07:41:30.279Z,47.20
2018-09-04T07:43:58.612Z,48.37
2018-09-04T07:46:26.942Z,48.37
2018-09-04T07:48:55.293Z,47.87
2018-09-04T07:51:23.601Z,45.80
2018-09-04T07:53:52.012Z,46.83
2018-09-04T07:56:20.334Z,48.90
2018-09-04T07:58:48.652Z,46.47
2018-09-04T08:01:16.980Z,45.90
2018-09-04T08:03:46.298Z,42.37
2018-09-04T08:06:14.649Z,43.47
2018-09-04T08:08:44.008Z,42.40
2018-09-04T08:11:12.378Z,41.13
2018-09-04T08:13:40.724Z,42.37
2018-09-04T08:16:09.084Z,42.37
2018-09-04T08:18:37.353Z,43.47
2018-09-04T08:21:05.864Z,39.27
2018-09-04T08:23:34.190Z,36.40
2018-09-04T08:26:03.816Z,38.87
2018-09-04T08:28:33.180Z,36.23
2018-09-04T08:31:03.038Z,37.60
2018-09-04T08:33:32.087Z,37.73
2018-09-04T08:36:00.881Z,40.33
2018-09-04T08:38:29.198Z,40.23
2018-09-04T08:40:57.522Z,37.80
2018-09-04T08:43:26.577Z,36.40
2018-09-04T08:45:54.948Z,36.67
2018-09-04T08:48:23.259Z,37.07
2018-09-04T08:50:51.575Z,34.30
2018-09-04T08:53:19.887Z,34.30
2018-09-04T08:55:48.261Z,33.80
2018-09-04T08:58:16.577Z,35.83
2018-09-04T09:00:44.936Z,39.00
2018-09-04T09:03:13.305Z,37.70
2018-09-04T09:05:41.704Z,34.10
2018-09-04T09:08:15.255Z,31.23
2018-09-04T09:10:43.605Z,29.80
2018-09-04T09:13:11.964Z,27.70
2018-09-04T09:15:40.560Z,26.60
2018-09-04T09:18:08.894Z,23.63
2018-09-04T09:20:38.000Z,25.73
2018-09-04T09:23:06.320Z,27.43
2018-09-04T09:25:34.773Z,24.23
2018-09-04T09:28:03.124Z,22.63
2018-09-04T09:30:42.132Z,23.40
2018-09-04T09:33:10.460Z,20.90
2018-09-04T09:35:38.786Z,22.30
2018-09-04T09:38:07.102Z,22.63
2018-09-04T09:40:35.474Z,23.83
2018-09-04T09:43:03.831Z,22.17
2018-09-04T09:45:52.659Z,19.80
2018-09-04T09:48:32.387Z,21.73
2018-09-04T09:51:00.738Z,21.67
2018-09-04T09:53:29.352Z,20.47
2018-09-04T09:55:58.961Z,20.27
2018-09-04T09:58:28.025Z,28.93
2018-09-04T10:01:01.936Z,29.70
2018-09-04T10:03:35.733Z,33.70
2018-09-04T10:06:07.459Z,32.53
2018-09-04T10:08:35.821Z,32.70
2018-09-04T10:11:04.203Z,32.07
2018-09-04T10:13:32.536Z,28.47
2018-09-04T10:16:05.631Z,28.00
2018-09-04T10:18:33.989Z,27.17
2018-09-04T10:21:02.321Z,27.33
2018-09-04T10:23:30.789Z,23.37
2018-09-04T10:25:59.377Z,32.87
2018-09-04T10:28:27.747Z,35.00
2018-09-04T10:30:56.095Z,29.37
2018-09-04T10:33:24.429Z,24.90
2018-09-04T10:35:52.765Z,24.40
2018-09-04T10:38:23.977Z,28.07
2018-09-04T10:40:53.835Z,32.03
2018-09-04T10:43:22.324Z,31.60
2018-09-04T10:45:55.797Z,32.63
2018-09-04T10:48:25.989Z,20.53
2018-09-04T10:50:54.317Z,26.67
2018-09-04T10:53:22.663Z,36.17
2018-09-04T10:55:51.036Z,39.13
2018-09-04T10:58:19.311Z,40.90
2018-09-04T11:00:47.642Z,37.83
2018-09-04T11:03:16.008Z,36.20
2018-09-04T11:05:44.510Z,46.10
2018-09-04T11:08:12.997Z,35.60
2018-09-04T11:10:42.313Z,45.37
2018-09-04T11:13:10.707Z,41.03
2018-09-04T11:15:39.128Z,38.60
2018-09-04T11:18:07.528Z,41.40
2018-09-04T11:20:35.845Z,39.17
2018-09-04T11:23:09.349Z,39.60
2018-09-04T11:25:37.701Z,43.97
2018-09-04T11:28:07.975Z,34.03
2018-09-04T11:30:45.570Z,31.33
2018-09-04T11:33:16.464Z,31.37
2018-09-04T11:35:55.546Z,33.03
2018-09-04T11:38:29.467Z,36.07
2018-09-04T11:40:57.920Z,34.70
2018-09-04T11:43:28.237Z,30.37
2018-09-04T11:45:56.558Z,28.00
2018-09-04T11:48:24.873Z,27.77
2018-09-04T11:50:53.193Z,27.07
2018-09-04T11:53:21.820Z,27.83
2018-09-04T11:55:50.133Z,29.90
2018-09-04T11:58:18.470Z,30.30
2018-09-04T12:00:47.990Z,31.30
2018-09-04T12:03:17.295Z,27.20
2018-09-04T12:05:46.368Z,27.30
2018-09-04T12:08:14.670Z,27.53
2018-09-04T12:10:43.008Z,25.70
2018-09-04T12:13:11.381Z,26.63
2018-09-04T12:15:40.793Z,30.20
2018-09-04T12:18:09.905Z,33.10
2018-09-04T12:20:50.692Z,32.10
2018-09-04T12:23:18.981Z,34.47
2018-09-04T12:25:48.819Z,34.07
2018-09-04T12:28:21.138Z,31.90
2018-09-04T12:30:49.492Z,29.80
2018-09-04T12:33:19.090Z,30.20
2018-09-04T12:35:48.817Z,30.50
2018-09-04T12:38:18.737Z,25.13
2018-09-04T12:40:55.764Z,24.77
2018-09-04T12:43:25.783Z,20.90
2018-09-04T12:46:04.876Z,18.80
2018-09-04T12:48:38.130Z,19.27
2018-09-04T12:51:07.449Z,20.67
2018-09-04T12:53:37.854Z,20.90
2018-09-04T12:56:11.701Z,21.50
2018-09-04T12:58:41.644Z,18.80
2018-09-04T13:01:10.062Z,19.13
2018-09-04T13:03:51.593Z,17.90
2018-09-04T13:06:22.975Z,20.03
2018-09-04T13:08:52.881Z,19.07
2018-09-04T13:11:26.648Z,16.60
2018-09-04T13:13:55.049Z,16.80
2018-09-04T13:16:23.714Z,16.57
2018-09-04T13:18:52.062Z,15.43
2018-09-04T13:21:25.920Z,16.13
2018-09-04T13:23:56.385Z,17.10
2018-09-04T13:26:36.530Z,17.77
2018-09-04T13:29:05.220Z,19.07
2018-09-04T13:31:33.541Z,17.93
2018-09-04T13:34:01.871Z,16.13
2018-09-04T13:36:30.222Z,15.30
2018-09-04T13:38:58.600Z,16.10
2018-09-04T13:41:31.761Z,15.63
2018-09-04T13:44:00.161Z,15.60
2018-09-04T13:46:28.541Z,18.80
2018-09-04T13:48:56.897Z,19.20
2018-09-04T13:51:25.913Z,17.33
2018-09-04T13:53:54.329Z,16.77
2018-09-04T13:56:22.664Z,17.77
2018-09-04T13:58:50.987Z,15.97
2018-09-04T14:01:19.328Z,18.27
2018-09-04T14:03:47.745Z,14.90
2018-09-04T14:06:16.071Z,15.90
2018-09-04T14:08:44.419Z,15.47
2018-09-04T14:11:12.750Z,13.77
2018-09-04T14:13:45.942Z,13.40
2018-09-04T14:16:16.962Z,13.13
2018-09-04T14:18:45.270Z,12.17
2018-09-04T14:21:13.582Z,13.70
2018-09-04T14:23:41.893Z,12.73
2018-09-04T14:26:10.292Z,12.70
2018-09-04T14:28:41.981Z,14.13
2018-09-04T14:31:07.709Z,15.07
2018-09-04T14:33:37.042Z,16.27
2018-09-04T14:36:06.872Z,13.13
2018-09-04T14:38:35.960Z,15.30
2018-09-04T14:41:05.277Z,13.37
2018-09-04T14:43:36.572Z,14.20
2018-09-04T14:46:05.620Z,13.47
2018-09-04T14:48:33.955Z,12.77
2018-09-04T14:51:02.363Z,12.67
2018-09-04T14:53:31.477Z,10.53
2018-09-04T14:56:00.149Z,10.70
2018-09-04T14:58:28.533Z,10.97
2018-09-04T15:00:56.852Z,11.23
2018-09-04T15:03:25.185Z,10.77
2018-09-04T15:05:53.515Z,10.60
2018-09-04T15:08:28.649Z,9.20
2018-09-04T15:10:57.069Z,10.27
2018-09-04T15:13:25.438Z,10.80
2018-09-04T15:15:53.803Z,9.67
2018-09-04T15:18:22.113Z,10.00
2018-09-04T15:20:50.536Z,11.10
2018-09-04T15:23:18.923Z,11.50
2018-09-04T15:25:48.922Z,12.60
2018-09-04T15:28:29.889Z,12.10
2018-09-04T15:31:07.011Z,12.33
2018-09-04T15:33:49.757Z,14.30
2018-09-04T15:36:38.012Z,12.80
2018-09-04T15:39:15.223Z,13.87
2018-09-04T15:41:48.581Z,14.33
2018-09-04T15:44:16.973Z,12.83
2018-09-04T15:46:45.289Z,14.33
2018-09-04T15:49:19.532Z,14.20
2018-09-04T15:51:47.865Z,15.10
2018-09-04T15:54:16.185Z,14.10
2018-09-04T15:56:44.584Z,13.67
2018-09-04T15:59:12.861Z,12.73
2018-09-04T16:01:41.267Z,12.13
2018-09-04T16:04:09.661Z,12.37
2018-09-04T16:06:38.049Z,12.40
2018-09-04T16:09:06.536Z,13.53
2018-09-04T16:11:35.483Z,13.00
2018-09-04T16:14:04.770Z,13.50
2018-09-04T16:16:33.076Z,12.53
2018-09-04T16:19:01.418Z,12.40
2018-09-04T16:21:29.729Z,12.03
2018-09-04T16:23:58.156Z,13.00
2018-09-04T16:26:26.650Z,14.10
2018-09-04T16:28:55.101Z,12.50
2018-09-04T16:31:23.459Z,13.30
2018-09-04T16:33:51.793Z,13.87
2018-09-04T16:36:20.370Z,13.63
2018-09-04T16:38:48.737Z,13.90
2018-09-04T16:41:17.079Z,17.77
2018-09-04T16:43:52.863Z,18.73
2018-09-04T16:46:21.174Z,19.33
2018-09-04T16:48:49.623Z,20.70
2018-09-04T16:51:18.222Z,21.70
2018-09-04T16:53:46.560Z,23.87
2018-09-04T16:56:17.035Z,24.23
2018-09-04T16:58:45.473Z,22.63
2018-09-04T17:01:13.816Z,22.67
2018-09-04T17:03:42.157Z,24.37
2018-09-04T17:06:10.462Z,24.73
2018-09-04T17:08:38.820Z,21.93
2018-09-04T17:11:07.172Z,20.73
2018-09-04T17:13:35.597Z,20.77
2018-09-04T17:16:03.931Z,21.10
2018-09-04T17:18:32.253Z,23.13
2018-09-04T17:21:48.297Z,25.70
2018-09-04T17:24:16.626Z,28.27
2018-09-04T17:26:45.021Z,29.70
2018-09-04T17:29:13.341Z,29.73
2018-09-04T17:31:41.702Z,28.70
2018-09-04T17:34:10.066Z,28.60
2018-09-04T17:36:38.381Z,28.90
2018-09-04T17:39:07.717Z,30.50
2018-09-04T17:41:36.435Z,32.43
2018-09-04T17:44:05.032Z,31.30
2018-09-04T17:46:33.361Z,31.23
2018-09-04T17:49:01.660Z,33.07
2018-09-04T17:51:30.250Z,31.53
2018-09-04T17:53:58.618Z,33.67
2018-09-04T17:56:26.977Z,31.20
2018-09-04T17:58:55.322Z,31.87
2018-09-04T18:01:23.637Z,31.00
2018-09-04T18:03:52.054Z,29.83
2018-09-04T18:06:20.379Z,29.80
2018-09-04T18:08:48.715Z,30.27
2018-09-04T18:11:20.335Z,30.23
2018-09-04T18:14:01.242Z,32.87
2018-09-04T18:16:34.445Z,34.27
2018-09-04T18:19:08.034Z,34.10
2018-09-04T18:21:44.126Z,48.40
2018-09-04T18:24:26.219Z,42.63
2018-09-04T18:29:43.983Z,91.00
2018-09-04T18:32:21.456Z,48.90
2018-09-04T18:34:53.122Z,42.97
2018-09-04T18:37:25.421Z,34.77
2018-09-04T18:39:57.381Z,32.73
2018-09-04T18:42:31.581Z,31.50
2018-09-04T18:45:02.572Z,79.93
2018-09-04T18:47:34.463Z,66.40
2018-09-04T18:50:07.068Z,48.03
2018-09-04T18:52:48.654Z,36.87
2018-09-04T18:55:24.020Z,33.00
2018-09-04T18:58:03.170Z,32.77
2018-09-04T19:00:42.549Z,33.13
2018-09-04T19:03:13.047Z,32.40
2018-09-04T19:05:50.784Z,30.50
2018-09-04T19:08:27.431Z,28.70
2018-09-04T19:11:04.138Z,29.20
2018-09-04T19:13:39.184Z,30.53
2018-09-04T19:16:12.198Z,30.93
2018-09-04T19:18:43.781Z,32.07
2018-09-04T19:21:15.619Z,32.10
2018-09-04T19:23:47.037Z,34.83
2018-09-04T19:26:15.520Z,36.47
2018-09-04T19:28:43.869Z,36.60
2018-09-04T19:31:12.205Z,35.10
2018-09-04T19:33:40.542Z,37.07
2018-09-04T19:36:09.115Z,34.10
2018-09-04T19:38:37.492Z,36.67
2018-09-04T19:41:05.857Z,37.90
2018-09-04T19:43:37.522Z,36.57
2018-09-04T19:46:09.273Z,37.83
2018-09-04T19:48:42.077Z,38.30
2018-09-04T19:51:14.694Z,36.07
2018-09-04T19:53:48.201Z,39.13
2018-09-04T19:56:19.931Z,37.83
2018-09-04T19:58:52.380Z,36.67
2018-09-04T20:01:23.247Z,36.30
2018-09-04T20:03:57.614Z,36.93
2018-09-04T20:06:34.263Z,36.37
2018-09-04T20:09:11.041Z,36.07
2018-09-04T20:11:42.742Z,37.40
2018-09-04T20:14:20.226Z,36.50
2018-09-04T20:16:59.643Z,36.07
2018-09-04T20:19:33.673Z,35.97
2018-09-04T20:22:05.678Z,39.77
2018-09-04T20:24:36.349Z,39.77
2018-09-04T20:27:08.291Z,38.60
2018-09-04T20:29:40.090Z,42.33
2018-09-04T20:32:11.482Z,38.60
2018-09-04T20:34:45.319Z,37.40
2018-09-04T20:37:18.665Z,34.93
2018-09-04T20:39:49.397Z,34.30
2018-09-04T20:42:23.307Z,37.00
2018-09-04T20:44:58.649Z,34.13
2018-09-04T20:47:33.194Z,32.80
2018-09-04T20:50:04.949Z,36.90
2018-09-04T20:52:37.295Z,39.33
2018-09-04T20:55:09.493Z,40.07
2018-09-04T20:57:41.179Z,38.40
2018-09-04T21:00:24.989Z,37.63
2018-09-04T21:03:07.027Z,35.43
2018-09-04T21:05:47.901Z,35.80
2018-09-04T21:08:33.050Z,35.73
2018-09-04T21:11:06.619Z,40.43
2018-09-04T21:13:39.653Z,38.77
2018-09-04T21:16:13.227Z,39.67
2018-09-04T21:18:45.048Z,39.90
2018-09-04T21:21:18.312Z,36.10
2018-09-04T21:23:48.752Z,40.27
2018-09-04T21:26:20.831Z,39.40
2018-09-04T21:28:51.641Z,39.33
2018-09-04T21:31:23.682Z,37.40
2018-09-04T21:33:55.607Z,36.93
2018-09-04T21:36:27.755Z,37.20
2018-09-04T21:39:01.846Z,37.20
2018-09-04T21:41:32.508Z,40.63
2018-09-04T21:44:06.120Z,39.77
2018-09-04T21:46:40.583Z,46.00
2018-09-04T21:49:11.399Z,45.20
2018-09-04T21:51:46.228Z,45.57
2018-09-04T21:54:16.800Z,44.67
2018-09-04T21:56:50.655Z,43.10
2018-09-04T21:59:22.836Z,47.80
2018-09-04T22:01:55.533Z,47.20
2018-09-04T22:04:29.693Z,45.33
2018-09-04T22:07:01.467Z,45.47
2018-09-04T22:09:37.306Z,43.00
2018-09-04T22:12:12.578Z,42.13
2018-09-04T22:14:45.523Z,44.50
2018-09-04T22:17:18.606Z,40.57
2018-09-04T22:19:50.147Z,46.47
2018-09-04T22:22:25.414Z,46.47
2018-09-04T22:24:57.911Z,44.03
2018-09-04T22:27:30.361Z,43.23
2018-09-04T22:30:09.065Z,43.10
2018-09-04T22:32:42.335Z,45.23
2018-09-04T22:35:14.902Z,42.27
2018-09-04T22:37:50.035Z,45.63
2018-09-04T22:40:23.817Z,44.97
2018-09-04T22:42:56.154Z,41.90
2018-09-04T22:45:29.303Z,43.53
2018-09-04T22:48:02.478Z,50.63
2018-09-04T22:50:42.792Z,45.47
2018-09-04T22:53:14.658Z,45.30
2018-09-04T22:55:49.646Z,41.60
2018-09-04T22:58:25.974Z,32.50
2018-09-04T23:00:57.527Z,39.70
2018-09-04T23:03:28.926Z,40.40
2018-09-04T23:06:03.646Z,41.53
2018-09-04T23:08:36.086Z,38.50
2018-09-04T23:11:09.161Z,39.93
2018-09-04T23:13:43.446Z,41.20
2018-09-04T23:16:18.540Z,42.87
2018-09-04T23:18:54.581Z,44.50
2018-09-04T23:21:25.979Z,45.27
2018-09-04T23:23:58.664Z,44.73
2018-09-04T23:26:36.610Z,46.80
2018-09-04T23:29:08.931Z,45.17
2018-09-04T23:31:41.592Z,42.37
2018-09-04T23:34:13.575Z,48.20
2018-09-04T23:36:45.215Z,42.73
2018-09-04T23:39:21.410Z,47.60
2018-09-04T23:41:52.700Z,44.20
2018-09-04T23:44:28.994Z,48.90
2018-09-04T23:47:00.915Z,45.30
2018-09-04T23:49:32.342Z,44.87
2018-09-04T23:52:06.615Z,47.77
2018-09-04T23:54:40.366Z,45.97
2018-09-04T23:57:11.728Z,48.10
2018-09-04T23:59:44.117Z,51.47
